Time;durP1;ratioP1;P1;durP2;ratioP2;P2;SDS_P1;SDS_P2;PMS_P1;PMS_P2;Temp;Humidity;BMP_temperature;BMP_pressure;BME280_temperature;BME280_humidity;BME280_pressure;Samples;Min_cycle;Max_cycle;Signal;HPM_P1;HPM_P2
2022/07/27 00:00:19;;;;;;;2.53;0.80;;;16.60;40.80;;;;;;5068022;28;20033;-51
2022/07/27 00:02:45;;;;;;;2.95;0.90;;;16.60;40.60;;;;;;5048178;28;20033;-49
2022/07/27 00:05:10;;;;;;;5.47;1.05;;;16.60;38.90;;;;;;5068003;28;20094;-51
2022/07/27 00:07:36;;;;;;;3.65;1.08;;;16.60;40.10;;;;;;5046877;28;20060;-47
2022/07/27 00:10:03;;;;;;;4.50;0.90;;;16.60;40.00;;;;;;5067970;28;20090;-51
2022/07/27 00:12:28;;;;;;;2.25;0.68;;;16.60;40.00;;;;;;5047982;28;20032;-51
2022/07/27 00:14:57;;;;;;;1.88;1.00;;;16.60;40.00;;;;;;5059898;28;20025;-50
2022/07/27 00:17:26;;;;;;;3.35;1.00;;;16.60;40.20;;;;;;5047846;28;20024;-49
2022/07/27 00:19:52;;;;;;;3.05;0.70;;;16.60;40.10;;;;;;5046836;28;20317;-51
2022/07/27 00:22:17;;;;;;;2.58;0.73;;;16.50;40.00;;;;;;5067055;28;20300;-54
2022/07/27 00:24:43;;;;;;;5.45;0.75;;;16.50;39.70;;;;;;5046615;28;20087;-49
2022/07/27 00:27:09;;;;;;;3.13;0.73;;;16.50;39.40;;;;;;5065696;28;20039;-48
2022/07/27 00:29:34;;;;;;;3.45;0.85;;;16.50;38.70;;;;;;5046323;28;20100;-52
2022/07/27 00:32:00;;;;;;;2.03;0.70;;;16.50;38.20;;;;;;5066768;28;20033;-49
2022/07/27 00:34:25;;;;;;;2.63;0.93;;;16.40;38.10;;;;;;5046487;28;20026;-48
2022/07/27 00:36:51;;;;;;;4.03;0.90;;;16.40;38.00;;;;;;5066717;28;20086;-49
2022/07/27 00:39:16;;;;;;;3.13;0.80;;;16.40;38.60;;;;;;5046203;28;20033;-53
2022/07/27 00:41:42;;;;;;;1.48;0.75;;;16.40;38.00;;;;;;5066657;28;20039;-54
2022/07/27 00:44:07;;;;;;;3.90;0.65;;;16.30;37.70;;;;;;5046191;28;20112;-49
2022/07/27 00:46:33;;;;;;;2.38;0.90;;;16.30;37.70;;;;;;5066706;28;20021;-49
2022/07/27 00:48:58;;;;;;;3.63;0.80;;;16.30;37.80;;;;;;5057450;28;20039;-52
2022/07/27 00:51:25;;;;;;;4.25;0.90;;;16.30;37.50;;;;;;5051876;28;20061;-53
2022/07/27 00:53:52;;;;;;;2.85;0.88;;;16.30;37.60;;;;;;5068438;28;20036;-50
2022/07/27 00:56:18;;;;;;;1.92;0.45;;;16.30;37.70;;;;;;5051486;28;20074;-51
2022/07/27 00:58:47;;;;;;;3.40;0.90;;;16.30;37.60;;;;;;5068371;28;20028;-51
2022/07/27 01:01:13;;;;;;;4.25;0.80;;;16.20;37.60;;;;;;5051079;28;20033;-52
2022/07/27 01:03:39;;;;;;;3.17;0.73;;;16.20;37.50;;;;;;5068316;28;20028;-54
2022/07/27 01:06:05;;;;;;;3.95;0.93;;;16.10;37.40;;;;;;5051319;28;20033;-55
2022/07/27 01:08:30;;;;;;;5.00;0.88;;;16.10;37.70;;;;;;5068234;28;20380;-51
2022/07/27 01:10:56;;;;;;;2.72;0.55;;;16.10;37.70;;;;;;5069642;28;20381;-54
2022/07/27 01:13:25;;;;;;;4.13;0.80;;;16.00;37.80;;;;;;5049045;28;20029;-53
2022/07/27 01:15:51;;;;;;;1.17;0.55;;;15.90;37.70;;;;;;5070678;28;20017;-53
2022/07/27 01:18:27;;;;;;;3.00;0.90;;;15.80;37.80;;;;;;5053528;28;20032;-50
2022/07/27 01:20:53;;;;;;;3.63;0.70;;;15.70;38.10;;;;;;5070513;28;20051;-54
2022/07/27 01:23:19;;;;;;;4.00;0.98;;;15.60;38.60;;;;;;5053431;28;20036;-53
2022/07/27 01:25:44;;;;;;;4.10;0.90;;;15.50;38.90;;;;;;5070564;28;20585;-53
2022/07/27 01:28:10;;;;;;;2.83;0.70;;;15.40;39.20;;;;;;5052072;28;20032;-53
2022/07/27 01:30:35;;;;;;;4.47;0.80;;;15.30;39.70;;;;;;5070435;28;20027;-52
2022/07/27 01:33:06;;;;;;;2.10;0.70;;;15.20;40.00;;;;;;5050504;28;20492;-51
2022/07/27 01:35:32;;;;;;;3.35;0.77;;;15.10;40.40;;;;;;5070470;28;20106;-48
2022/07/27 01:37:58;;;;;;;3.38;0.88;;;15.00;40.90;;;;;;5049884;28;20025;-48
2022/07/27 01:40:24;;;;;;;3.65;1.42;;;14.90;41.20;;;;;;5070151;28;20109;-47
2022/07/27 01:42:49;;;;;;;3.63;0.90;;;14.80;41.90;;;;;;5050579;28;20037;-51
2022/07/27 01:45:15;;;;;;;3.53;0.80;;;14.70;42.70;;;;;;5068033;28;20028;-52
2022/07/27 01:47:41;;;;;;;1.02;0.60;;;14.60;43.30;;;;;;5051332;28;20043;-53
2022/07/27 01:50:07;;;;;;;2.67;0.80;;;14.50;44.70;;;;;;5048637;28;20446;-53
2022/07/27 01:52:32;;;;;;;3.42;0.80;;;14.40;45.20;;;;;;5069277;28;20028;-50
2022/07/27 01:54:58;;;;;;;3.95;0.80;;;14.30;45.50;;;;;;5048862;28;20036;-47
2022/07/27 01:57:23;;;;;;;2.40;0.70;;;14.20;45.70;;;;;;5069269;28;20116;-47
2022/07/27 01:59:49;;;;;;;2.58;0.65;;;14.10;46.10;;;;;;5048195;28;20037;-49
2022/07/27 02:02:15;;;;;;;3.28;0.75;;;14.00;46.60;;;;;;5069105;28;20119;-47
2022/07/27 02:04:41;;;;;;;3.03;0.80;;;13.90;47.60;;;;;;5048686;28;20095;-49
2022/07/27 02:07:07;;;;;;;4.35;0.88;;;13.80;48.40;;;;;;5069168;28;20032;-47
2022/07/27 02:09:33;;;;;;;2.30;0.50;;;13.80;48.40;;;;;;5048386;28;20377;-49
2022/07/27 02:14:42;;;;;;;2.00;0.60;;;13.60;49.40;;;;;;5037136;28;20195;-52
2022/07/27 02:17:08;;;;;;;2.15;0.80;;;13.60;50.00;;;;;;5068802;28;20186;-53
2022/07/27 02:19:33;;;;;;;2.45;0.85;;;13.50;50.00;;;;;;5048410;28;20025;-46
2022/07/27 02:21:59;;;;;;;3.33;0.85;;;13.40;50.10;;;;;;5068706;28;20497;-47
2022/07/27 02:24:24;;;;;;;5.97;0.98;;;13.40;50.70;;;;;;5048251;28;20108;-48
2022/07/27 02:26:49;;;;;;;1.13;0.80;;;13.30;51.00;;;;;;5068622;28;20036;-50
2022/07/27 02:29:15;;;;;;;1.73;0.75;;;13.30;51.40;;;;;;5058149;28;20520;-50
2022/07/27 02:31:40;;;;;;;2.15;0.88;;;13.20;51.60;;;;;;5049741;28;20221;-51
2022/07/27 02:34:06;;;;;;;3.50;1.02;;;13.10;52.50;;;;;;5066574;28;20108;-49
2022/07/27 02:36:31;;;;;;;3.40;0.90;;;13.00;52.60;;;;;;5048490;28;20531;-50
2022/07/27 02:38:57;;;;;;;1.60;0.63;;;13.00;53.90;;;;;;5066523;28;20043;-54
2022/07/27 02:41:23;;;;;;;4.57;0.98;;;12.90;53.80;;;;;;5069051;28;20056;-53
2022/07/27 02:43:48;;;;;;;3.25;0.95;;;12.90;54.60;;;;;;5053684;28;20024;-50
2022/07/27 02:46:14;;;;;;;3.65;0.60;;;12.80;54.80;;;;;;5069011;28;20621;-49
2022/07/27 02:48:39;;;;;;;1.48;0.90;;;12.70;55.60;;;;;;5051814;28;20037;-47
2022/07/27 02:51:05;;;;;;;3.08;0.70;;;12.60;56.50;;;;;;5068117;28;20033;-54
2022/07/27 02:53:30;;;;;;;2.95;0.70;;;12.60;57.40;;;;;;5050838;28;20082;-53
2022/07/27 02:55:56;;;;;;;3.45;1.10;;;12.50;57.70;;;;;;5068987;28;20039;-55
2022/07/27 02:58:22;;;;;;;2.10;0.70;;;12.50;58.80;;;;;;5049428;28;20413;-55
2022/07/27 03:00:48;;;;;;;2.55;0.55;;;12.40;58.50;;;;;;5068812;28;20025;-50
2022/07/27 03:03:13;;;;;;;4.20;1.10;;;12.40;59.40;;;;;;5048170;28;20052;-48
2022/07/27 03:05:39;;;;;;;2.95;1.35;;;12.40;59.80;;;;;;5068637;28;20035;-52
2022/07/27 03:08:04;;;;;;;12.50;1.33;;;12.40;60.60;;;;;;5049372;28;20028;-50
2022/07/27 03:10:30;;;;;;;1.08;0.70;;;12.40;60.90;;;;;;5066150;28;20028;-53
2022/07/27 03:12:56;;;;;;;4.57;1.10;;;12.30;61.30;;;;;;5047867;28;20064;-54
2022/07/27 03:15:22;;;;;;;4.97;1.10;;;12.30;61.60;;;;;;5043166;28;20472;-49
2022/07/27 03:17:47;;;;;;;5.13;1.00;;;12.30;61.50;;;;;;5067916;28;20090;-53
2022/07/27 03:20:13;;;;;;;2.17;0.82;;;12.30;62.50;;;;;;5047266;28;20105;-51
2022/07/27 03:22:39;;;;;;;2.05;1.00;;;12.30;62.70;;;;;;5067700;28;20105;-54
2022/07/27 03:25:05;;;;;;;3.15;0.90;;;12.30;62.80;;;;;;5047181;28;20033;-53
2022/07/27 03:27:31;;;;;;;0.95;0.60;;;12.30;64.20;;;;;;5067768;28;20496;-54
2022/07/27 03:29:56;;;;;;;5.40;0.90;;;12.30;64.80;;;;;;5047005;28;20032;-52
2022/07/27 03:32:22;;;;;;;3.58;0.93;;;12.30;64.50;;;;;;5067529;28;20414;-53
2022/07/27 03:34:47;;;;;;;2.45;1.02;;;12.30;65.40;;;;;;5047060;28;20029;-50
2022/07/27 03:37:14;;;;;;;2.17;0.70;;;12.30;65.10;;;;;;5067471;28;20040;-54
2022/07/27 03:39:39;;;;;;;3.08;0.70;;;12.30;65.60;;;;;;5046800;28;20028;-50
2022/07/27 03:42:05;;;;;;;2.20;0.68;;;12.40;65.20;;;;;;5067607;28;20032;-50
2022/07/27 03:44:30;;;;;;;1.38;0.70;;;12.40;65.70;;;;;;5057010;28;20024;-52
2022/07/27 03:46:56;;;;;;;2.30;0.80;;;12.50;65.70;;;;;;5048737;28;20036;-48
2022/07/27 03:49:21;;;;;;;3.15;0.73;;;12.50;66.10;;;;;;5065461;28;20107;-50
2022/07/27 03:51:47;;;;;;;9.25;0.90;;;12.50;65.60;;;;;;5048468;28;20511;-52
2022/07/27 03:54:12;;;;;;;5.88;1.40;;;12.60;66.90;;;;;;5065535;28;20112;-49
2022/07/27 03:56:38;;;;;;;2.42;0.95;;;12.60;66.40;;;;;;5068032;28;20025;-48
2022/07/27 03:59:04;;;;;;;1.08;0.65;;;12.70;65.90;;;;;;5052945;28;20037;-49
2022/07/27 04:01:29;;;;;;;4.63;0.98;;;12.70;66.50;;;;;;5068112;28;20249;-50
2022/07/27 04:03:55;;;;;;;2.60;0.90;;;12.80;65.50;;;;;;5051400;28;20032;-51
2022/07/27 04:06:20;;;;;;;3.17;0.80;;;12.80;65.30;;;;;;5068023;28;20059;-49
2022/07/27 04:08:46;;;;;;;1.70;0.93;;;12.90;65.40;;;;;;5049987;28;20285;-54
2022/07/27 04:11:11;;;;;;;2.83;0.80;;;13.00;64.90;;;;;;5068282;28;20111;-51
2022/07/27 04:13:37;;;;;;;0.85;0.60;;;13.10;64.50;;;;;;5047723;28;20485;-49
2022/07/27 04:16:02;;;;;;;1.73;0.82;;;13.10;64.40;;;;;;5048187;28;20108;-51
2022/07/27 04:18:28;;;;;;;1.45;0.80;;;13.20;64.00;;;;;;5065187;28;20089;-49
2022/07/27 04:20:53;;;;;;;2.50;0.85;;;13.30;64.30;;;;;;5067753;28;20025;-47
2022/07/27 04:23:19;;;;;;;4.15;1.25;;;13.40;63.40;;;;;;5049634;28;20544;-48
2022/07/27 04:25:44;;;;;;;2.33;0.63;;;13.50;63.20;;;;;;5049992;28;20055;-55
2022/07/27 04:28:09;;;;;;;4.13;0.93;;;13.70;63.20;;;;;;5070976;28;20041;-63
2022/07/27 04:30:35;;;;;;;1.45;0.75;;;13.80;62.50;;;;;;5049278;28;20025;-63
2022/07/27 04:33:00;;;;;;;3.95;0.82;;;13.90;61.60;;;;;;5070849;28;20086;-56
2022/07/27 04:35:26;;;;;;;2.53;0.82;;;14.10;61.20;;;;;;5050293;28;20409;-55
2022/07/27 04:37:52;;;;;;;6.13;0.70;;;14.20;60.50;;;;;;5070757;28;20242;-55
2022/07/27 04:40:17;;;;;;;2.20;0.70;;;14.40;59.70;;;;;;5050154;28;20032;-53
2022/07/27 04:42:42;;;;;;;2.25;0.80;;;15.30;57.00;;;;;;5070743;28;20032;-55
2022/07/27 04:45:08;;;;;;;2.97;0.90;;;15.60;55.20;;;;;;5050161;28;20036;-50
2022/07/27 04:47:34;;;;;;;3.00;1.02;;;16.00;53.30;;;;;;5070100;28;20516;-52
2022/07/27 04:49:59;;;;;;;3.10;1.00;;;16.10;52.60;;;;;;5049604;28;20404;-54
2022/07/27 04:52:25;;;;;;;2.33;0.70;;;16.20;51.70;;;;;;5070428;28;20032;-55
2022/07/27 04:54:52;;;;;;;2.33;0.75;;;16.30;51.10;;;;;;5050048;28;20559;-54
2022/07/27 04:57:18;;;;;;;3.58;0.80;;;16.50;49.90;;;;;;5070720;28;20029;-53
2022/07/27 04:59:43;;;;;;;5.68;1.08;;;16.60;49.10;;;;;;5059615;28;20031;-57
2022/07/27 05:02:09;;;;;;;4.35;0.90;;;16.50;49.50;;;;;;5051746;28;20033;-52
2022/07/27 05:04:34;;;;;;;2.95;0.55;;;16.50;49.00;;;;;;5068606;28;20070;-56
2022/07/27 05:07:00;;;;;;;1.80;0.73;;;16.90;47.60;;;;;;5051508;28;20366;-54
2022/07/27 05:09:25;;;;;;;1.50;0.60;;;17.50;46.60;;;;;;5068143;28;20093;-54
2022/07/27 05:11:51;;;;;;;2.58;0.90;;;18.00;44.00;;;;;;5070805;28;20027;-54
2022/07/27 05:14:16;;;;;;;2.72;0.80;;;18.50;42.90;;;;;;5049030;28;20025;-53
2022/07/27 05:16:42;;;;;;;3.42;0.73;;;19.40;40.00;;;;;;5070143;28;20119;-56
2022/07/27 05:19:07;;;;;;;1.55;0.77;;;20.70;36.50;;;;;;5053833;28;20020;-55
2022/07/27 05:21:32;;;;;;;5.15;0.70;;;21.90;32.90;;;;;;5070678;28;20443;-54
2022/07/27 05:23:58;;;;;;;3.95;1.13;;;23.20;30.00;;;;;;5052336;28;20032;-53
2022/07/27 05:26:24;;;;;;;5.20;1.17;;;24.40;27.50;;;;;;5070806;28;20017;-56
2022/07/27 05:28:49;;;;;;;1.92;0.55;;;25.30;24.70;;;;;;5050851;28;20371;-55
2022/07/27 05:31:15;;;;;;;1.30;0.57;;;26.20;21.90;;;;;;5070689;28;20021;-56
2022/07/27 05:33:40;;;;;;;1.70;0.70;;;27.10;19.90;;;;;;5049307;28;20520;-55
2022/07/27 05:36:06;;;;;;;1.63;0.80;;;26.80;19.40;;;;;;5069472;28;20040;-54
2022/07/27 05:38:37;;;;;;;1.55;0.80;;;26.50;19.30;;;;;;5050865;28;20037;-50
2022/07/27 05:41:05;;;;;;;1.77;0.70;;;26.40;18.00;;;;;;5048366;28;20116;-53
2022/07/27 05:43:30;;;;;;;3.53;0.68;;;26.30;16.90;;;;;;5070037;28;20029;-55
2022/07/27 05:45:56;;;;;;;3.40;0.80;;;26.20;15.90;;;;;;5048949;28;20025;-52
2022/07/27 05:48:21;;;;;;;2.35;0.80;;;25.70;15.20;;;;;;5062676;28;20049;-51
2022/07/27 05:50:46;;;;;;;1.88;0.80;;;25.30;15.60;;;;;;5065689;28;20032;-52
2022/07/27 05:53:12;;;;;;;2.08;0.90;;;25.10;15.90;;;;;;5050671;28;20441;-54
2022/07/27 05:55:37;;;;;;;2.25;0.73;;;25.10;15.00;;;;;;5051603;28;20060;-54
2022/07/27 05:58:03;;;;;;;2.20;0.88;;;25.20;14.70;;;;;;5069325;28;20485;-52
2022/07/27 06:00:29;;;;;;;2.45;0.90;;;25.20;14.10;;;;;;5048668;28;20091;-54
2022/07/27 06:02:54;;;;;;;2.90;1.08;;;25.10;13.80;;;;;;5069225;28;20032;-55
2022/07/27 06:05:20;;;;;;;3.50;1.05;;;25.00;13.60;;;;;;5048704;28;20037;-53
2022/07/27 06:07:57;;;;;;;1.92;0.70;;;24.70;13.30;;;;;;5068977;28;20024;-53
2022/07/27 06:10:23;;;;;;;3.30;1.10;;;24.40;13.50;;;;;;5041554;28;20033;-52
2022/07/27 06:12:49;;;;;;;5.63;1.08;;;24.00;13.60;;;;;;5068915;28;20047;-54
2022/07/27 06:15:16;;;;;;;2.65;0.70;;;23.80;13.90;;;;;;5042974;28;20109;-54
2022/07/27 06:17:42;;;;;;;2.30;0.93;;;23.50;14.20;;;;;;5069003;28;20020;-55
2022/07/27 06:20:08;;;;;;;1.15;0.68;;;23.30;14.40;;;;;;5059073;28;20159;-51
2022/07/27 06:22:48;;;;;;;2.13;0.77;;;23.00;14.50;;;;;;5049980;28;20325;-53
2022/07/27 06:25:14;;;;;;;3.58;1.17;;;22.70;13.80;;;;;;5051064;28;20024;-55
2022/07/27 06:27:39;;;;;;;4.57;0.85;;;22.40;15.10;;;;;;5049806;28;20029;-55
2022/07/27 06:30:05;;;;;;;2.97;0.70;;;22.10;15.30;;;;;;5066739;28;20082;-54
2022/07/27 06:32:31;;;;;;;4.88;1.25;;;21.70;15.60;;;;;;5049620;28;20124;-54
2022/07/27 06:34:56;;;;;;;4.85;1.10;;;21.50;16.10;;;;;;5066580;28;20186;-52
2022/07/27 06:37:22;;;;;;;2.70;0.73;;;21.60;16.40;;;;;;5049868;28;20024;-53
2022/07/27 06:39:47;;;;;;;4.32;1.20;;;23.00;14.60;;;;;;5066330;28;20456;-55
2022/07/27 06:42:13;;;;;;;2.55;1.10;;;25.20;11.20;;;;;;5067891;28;20027;-53
2022/07/27 06:44:39;;;;;;;2.08;0.75;;;26.40;9.70;;;;;;5053959;28;20059;-55
2022/07/27 06:47:06;;;;;;;2.28;0.95;;;28.00;5.80;;;;;;5068856;28;20043;-52
2022/07/27 06:49:31;;;;;;;1.30;0.63;;;29.20;5.50;;;;;;5052526;28;20059;-55
2022/07/27 06:51:57;;;;;;;2.67;0.85;;;29.20;5.00;;;;;;5067703;28;20396;-55
2022/07/27 06:54:24;;;;;;;2.47;0.60;;;29.70;3.30;;;;;;5051461;28;20055;-52
2022/07/27 06:56:49;;;;;;;4.10;1.13;;;29.80;3.50;;;;;;5069159;28;20017;-53
2022/07/27 06:59:15;;;;;;;6.05;0.98;;;29.30;3.20;;;;;;5050254;28;20506;-54
2022/07/27 07:01:40;;;;;;;0.93;0.70;;;28.70;3.50;;;;;;5068718;28;20472;-54
2022/07/27 07:04:06;;;;;;;2.13;0.90;;;28.30;4.10;;;;;;5048661;28;20029;-54
2022/07/27 07:06:31;;;;;;;3.33;0.70;;;27.70;4.30;;;;;;5068679;28;20423;-51
2022/07/27 07:08:57;;;;;;;3.40;0.75;;;27.00;4.40;;;;;;5049207;28;20316;-52
2022/07/27 07:11:22;;;;;;;2.30;0.77;;;26.40;5.10;;;;;;5066707;28;20044;-55
2022/07/27 07:13:48;;;;;;;3.95;1.02;;;26.00;5.30;;;;;;5053000;28;20491;-54
2022/07/27 07:16:13;;;;;;;1.75;0.90;;;25.50;4.40;;;;;;5066808;28;20082;-52
2022/07/27 07:18:39;;;;;;;2.20;0.75;;;24.90;5.80;;;;;;5049012;28;20037;-52
2022/07/27 07:21:04;;;;;;;2.72;0.73;;;24.40;5.90;;;;;;5048985;28;20033;-55
2022/07/27 07:23:30;;;;;;;2.25;0.90;;;24.00;6.90;;;;;;5067678;28;20189;-51
2022/07/27 07:25:55;;;;;;;1.75;0.73;;;23.90;6.90;;;;;;5047163;28;20466;-54
2022/07/27 07:28:21;;;;;;;4.18;0.65;;;23.70;6.90;;;;;;5067474;28;20041;-54
2022/07/27 07:30:50;;;;;;;4.45;0.60;;;23.60;7.00;;;;;;5047045;28;20151;-51
2022/07/27 07:33:15;;;;;;;1.25;0.50;;;23.70;6.80;;;;;;5068126;28;20037;-54
2022/07/27 07:35:41;;;;;;;2.35;0.80;;;23.80;6.80;;;;;;5046916;28;20334;-54
2022/07/27 07:38:06;;;;;;;1.25;0.82;;;23.90;6.50;;;;;;5067701;28;20511;-53
2022/07/27 07:40:32;;;;;;;2.47;0.50;;;24.10;6.30;;;;;;5047252;28;20043;-52
2022/07/27 07:43:00;;;;;;;2.95;0.88;;;24.20;5.90;;;;;;5067367;28;20028;-53
2022/07/27 07:45:27;;;;;;;3.83;0.68;;;24.40;6.00;;;;;;5057521;28;20028;-50
2022/07/27 07:47:53;;;;;;;6.50;0.70;;;24.60;5.70;;;;;;5050879;28;20212;-54
2022/07/27 07:50:20;;;;;;;2.08;0.50;;;24.90;5.20;;;;;;5066251;28;20359;-51
2022/07/27 07:52:47;;;;;;;1.27;0.63;;;25.00;4.80;;;;;;5048214;28;20094;-53
2022/07/27 07:55:14;;;;;;;1.05;0.50;;;25.30;3.80;;;;;;5065572;28;20036;-54
2022/07/27 07:57:40;;;;;;;2.17;0.60;;;25.70;3.50;;;;;;5047608;28;20104;-52
2022/07/27 08:00:08;;;;;;;1.88;0.70;;;26.30;2.20;;;;;;5065422;28;20446;-52
2022/07/27 08:02:51;;;;;;;1.73;0.60;;;27.00;1.10;;;;;;5048123;28;20108;-53
2022/07/27 08:05:17;;;;;;;1.00;0.50;;;27.30;1.00;;;;;;5044719;28;20086;-52
2022/07/27 08:07:44;;;;;;;2.08;0.70;;;26.60;1.10;;;;;;5048288;28;20033;-54
2022/07/27 08:10:11;;;;;;;2.40;0.60;;;26.20;1.40;;;;;;5065636;28;20036;-53
2022/07/27 08:12:39;;;;;;;0.90;0.68;;;25.70;2.10;;;;;;5047785;28;20037;-49
2022/07/27 08:15:06;;;;;;;0.70;0.40;;;25.00;2.40;;;;;;5062352;28;20021;-53
2022/07/27 08:17:32;;;;;;;1.17;0.60;;;24.40;3.10;;;;;;5068013;28;20485;-51
2022/07/27 08:19:57;;;;;;;0.70;0.43;;;23.90;3.80;;;;;;5052617;28;20036;-50
2022/07/27 08:22:23;;;;;;;1.90;0.70;;;23.70;4.20;;;;;;5068039;28;20096;-53
2022/07/27 08:24:48;;;;;;;1.65;0.47;;;23.50;4.50;;;;;;5051091;28;20032;-50
2022/07/27 08:27:14;;;;;;;1.27;0.52;;;23.30;4.80;;;;;;5067808;28;20544;-54
2022/07/27 08:29:39;;;;;;;2.97;0.70;;;23.20;4.90;;;;;;5049588;28;20035;-50
2022/07/27 08:32:05;;;;;;;3.13;0.70;;;23.20;5.00;;;;;;5067764;28;20037;-54
2022/07/27 08:34:31;;;;;;;2.58;0.75;;;23.30;4.90;;;;;;5048239;28;20029;-54
2022/07/27 08:36:57;;;;;;;2.15;0.63;;;23.00;4.40;;;;;;5067663;28;20036;-55
2022/07/27 08:39:23;;;;;;;2.83;0.82;;;23.00;4.60;;;;;;5046961;28;20044;-51
2022/07/27 08:41:52;;;;;;;1.23;0.55;;;22.90;4.60;;;;;;5067661;28;20037;-50
2022/07/27 08:44:22;;;;;;;1.70;0.70;;;22.80;4.00;;;;;;5045650;28;20028;-56
2022/07/27 08:46:49;;;;;;;1.38;0.57;;;22.70;4.60;;;;;;5067579;28;20028;-56
2022/07/27 08:49:16;;;;;;;1.63;0.50;;;22.60;5.00;;;;;;5047505;28;20053;-49
2022/07/27 08:51:42;;;;;;;2.83;0.77;;;22.70;5.10;;;;;;5065313;28;20036;-55
2022/07/27 08:54:09;;;;;;;2.95;0.68;;;22.70;5.00;;;;;;5047851;28;20120;-56
2022/07/27 08:56:36;;;;;;;3.15;1.00;;;22.50;5.10;;;;;;5046350;28;20032;-50
2022/07/27 08:59:03;;;;;;;2.38;0.70;;;22.50;6.00;;;;;;5066999;28;20434;-51
2022/07/27 09:01:31;;;;;;;4.45;0.70;;;22.40;5.70;;;;;;5045898;28;20621;-49
2022/07/27 09:03:57;;;;;;;1.58;0.75;;;22.20;5.60;;;;;;5067034;28;20504;-55
2022/07/27 09:06:46;;;;;;;2.05;0.70;;;22.10;5.80;;;;;;5046166;28;20043;-51
2022/07/27 09:09:13;;;;;;;2.33;0.55;;;22.10;5.40;;;;;;5027449;28;20025;-51
2022/07/27 09:11:39;;;;;;;0.95;0.52;;;22.10;5.50;;;;;;5047726;28;20094;-52
2022/07/27 09:14:07;;;;;;;0.95;0.43;;;22.10;5.50;;;;;;5055192;28;20119;-55
2022/07/27 09:16:34;;;;;;;2.47;0.70;;;22.30;5.20;;;;;;5050974;28;20031;-55
2022/07/27 09:19:06;;;;;;;1.98;1.00;;;22.40;4.90;;;;;;5070110;28;20112;-54
2022/07/27 09:21:34;;;;;;;2.92;0.60;;;22.50;4.70;;;;;;5046470;28;20036;-53
2022/07/27 09:24:06;;;;;;;0.80;0.52;;;22.50;4.50;;;;;;5070148;28;20115;-52
2022/07/27 09:26:32;;;;;;;2.53;0.70;;;22.50;4.30;;;;;;5049130;28;20288;-49
2022/07/27 09:29:17;;;;;;;1.67;0.60;;;22.60;4.40;;;;;;5069837;28;20028;-52
2022/07/27 09:31:47;;;;;;;1.80;0.60;;;22.70;4.40;;;;;;5047555;28;20021;-53
2022/07/27 09:34:29;;;;;;;3.78;0.77;;;22.70;4.50;;;;;;5070108;28;20512;-54
2022/07/27 09:36:56;;;;;;;2.30;0.68;;;22.60;4.00;;;;;;5030572;28;20115;-53
2022/07/27 09:39:24;;;;;;;2.58;0.70;;;22.50;4.70;;;;;;5069414;28;20496;-53
2022/07/27 09:41:55;;;;;;;3.47;0.98;;;22.40;4.80;;;;;;5048527;28;20043;-51
2022/07/27 09:44:47;;;;;;;3.13;0.77;;;22.50;4.80;;;;;;5030389;28;20099;-52
2022/07/27 09:47:27;;;;;;;2.47;0.68;;;22.60;4.20;;;;;;5030038;28;20099;-53
2022/07/27 09:49:55;;;;;;;2.28;0.60;;;22.90;4.20;;;;;;5034389;28;20063;-53
2022/07/27 09:52:25;;;;;;;3.15;0.80;;;23.20;4.40;;;;;;5070311;28;20020;-52
2022/07/27 09:54:51;;;;;;;2.28;0.90;;;23.50;4.20;;;;;;5033495;28;20057;-50
2022/07/27 09:57:18;;;;;;;1.45;0.70;;;23.50;4.00;;;;;;5070229;28;20021;-56
2022/07/27 09:59:43;;;;;;;1.25;0.43;;;23.60;3.80;;;;;;5049846;28;20063;-51
2022/07/27 10:02:12;;;;;;;1.50;0.73;;;23.60;3.70;;;;;;5070071;28;20029;-51
2022/07/27 10:04:38;;;;;;;2.53;0.82;;;23.60;3.90;;;;;;5048415;28;20025;-51
2022/07/27 10:07:04;;;;;;;2.95;0.60;;;23.70;3.90;;;;;;5069966;28;20431;-53
2022/07/27 10:09:30;;;;;;;1.30;0.57;;;23.80;3.70;;;;;;5050291;28;20566;-54
2022/07/27 10:11:57;;;;;;;1.88;0.60;;;23.90;3.40;;;;;;5067534;28;20223;-52
2022/07/27 10:14:23;;;;;;;1.95;0.68;;;23.70;3.20;;;;;;5044610;28;20025;-49
2022/07/27 10:16:50;;;;;;;2.55;0.80;;;23.70;3.40;;;;;;5048893;28;20039;-51
2022/07/27 10:19:35;;;;;;;3.25;0.88;;;23.70;3.40;;;;;;5068959;28;20082;-51
2022/07/27 10:22:00;;;;;;;2.33;0.70;;;24.00;3.40;;;;;;5047323;28;20324;-53
2022/07/27 10:24:31;;;;;;;2.22;0.77;;;24.10;2.70;;;;;;5068836;28;20042;-55
2022/07/27 10:26:57;;;;;;;3.70;0.65;;;24.30;2.60;;;;;;5047200;28;20029;-53
2022/07/27 10:29:24;;;;;;;1.77;0.57;;;24.40;2.20;;;;;;5068759;28;20036;-52
2022/07/27 10:31:52;;;;;;;2.08;0.85;;;24.50;2.00;;;;;;5047862;28;20031;-52
2022/07/27 10:34:38;;;;;;;2.25;0.65;;;24.60;1.80;;;;;;5068770;28;20158;-54
2022/07/27 10:37:09;;;;;;;4.35;0.60;;;24.70;1.00;;;;;;5067382;28;20094;-48
2022/07/27 10:39:38;;;;;;;3.63;0.90;;;24.80;1.00;;;;;;5049349;28;20451;-52
2022/07/27 10:42:27;;;;;;;0.85;0.52;;;24.60;1.10;;;;;;5047443;28;20035;-51
2022/07/27 10:45:03;;;;;;;2.33;0.85;;;24.40;1.30;;;;;;5066883;28;20087;-50
2022/07/27 10:47:32;;;;;;;5.78;1.00;;;24.20;2.00;;;;;;5069000;28;20017;-54
2022/07/27 10:50:16;;;;;;;2.25;0.70;;;24.20;2.20;;;;;;5049318;28;20025;-55
2022/07/27 10:52:46;;;;;;;2.05;0.70;;;24.10;1.80;;;;;;5068965;28;20064;-54
2022/07/27 10:55:30;;;;;;;4.20;1.10;;;24.10;2.30;;;;;;5051125;28;20025;-54
2022/07/27 10:58:18;;;;;;;1.90;0.75;;;24.00;2.10;;;;;;5068963;28;20020;-50
2022/07/27 11:00:50;;;;;;;2.78;0.98;;;23.80;2.90;;;;;;5043100;28;20166;-53
2022/07/27 11:03:22;;;;;;;3.80;1.10;;;23.70;3.10;;;;;;5049476;28;20024;-47
2022/07/27 11:05:58;;;;;;;3.58;0.80;;;23.50;3.30;;;;;;5066547;28;20032;-48
2022/07/27 11:08:25;;;;;;;6.10;1.10;;;23.50;3.30;;;;;;5028880;28;20041;-48
2022/07/27 11:10:51;;;;;;;1.52;0.80;;;23.50;3.30;;;;;;5065812;28;20032;-49
2022/07/27 11:13:19;;;;;;;1.23;0.75;;;23.60;3.20;;;;;;5048688;28;20055;-48
2022/07/27 11:15:54;;;;;;;1.55;0.75;;;23.70;3.10;;;;;;5066682;28;20017;-49
2022/07/27 11:18:34;;;;;;;0.90;0.65;;;23.90;2.90;;;;;;5048794;28;20036;-52
2022/07/27 11:21:26;;;;;;;1.25;0.55;;;24.00;3.00;;;;;;5066238;28;20484;-49
2022/07/27 11:23:54;;;;;;;2.35;0.80;;;24.10;2.40;;;;;;5048914;28;20218;-51
2022/07/27 11:26:22;;;;;;;3.00;0.88;;;24.10;2.60;;;;;;5053832;28;20021;-50
2022/07/27 11:28:48;;;;;;;3.17;0.80;;;24.10;2.20;;;;;;5067994;28;20025;-55
2022/07/27 11:31:14;;;;;;;2.83;0.90;;;24.10;2.20;;;;;;5046981;28;20040;-53
2022/07/27 11:33:59;;;;;;;2.08;0.90;;;24.30;2.20;;;;;;5066588;28;20068;-50
2022/07/27 11:36:38;;;;;;;1.45;0.77;;;24.40;1.00;;;;;;5046998;28;20033;-48
2022/07/27 11:39:07;;;;;;;2.88;0.98;;;24.30;1.00;;;;;;5067796;28;20024;-50
2022/07/27 11:41:34;;;;;;;1.75;0.98;;;24.20;1.60;;;;;;5046504;28;20102;-50
2022/07/27 11:44:02;;;;;;;1.55;0.95;;;24.30;1.90;;;;;;5067679;28;20028;-47
2022/07/27 11:46:30;;;;;;;1.92;0.70;;;24.40;1.70;;;;;;5046326;28;20074;-50
2022/07/27 11:48:57;;;;;;;3.60;1.02;;;24.60;1.60;;;;;;5056054;28;20037;-52
2022/07/27 11:51:23;;;;;;;2.47;1.00;;;24.60;1.30;;;;;;5053646;28;20041;-53
2022/07/27 11:53:55;;;;;;;2.13;0.80;;;24.70;1.40;;;;;;5067294;28;20040;-49
2022/07/27 11:56:22;;;;;;;0.70;0.60;;;24.70;1.20;;;;;;5049332;28;20038;-50
2022/07/27 11:59:26;;;;;;;1.65;0.80;;;24.70;1.30;;;;;;5048158;28;20598;-53
2022/07/27 12:01:58;;;;;;;2.10;1.23;;;24.70;1.50;;;;;;5040641;28;20459;-53
2022/07/27 12:04:29;;;;;;;3.08;0.95;;;24.70;1.30;;;;;;5028323;28;20021;-53
2022/07/27 12:07:23;;;;;;;2.22;1.10;;;24.70;1.00;;;;;;5042167;28;20497;-51
2022/07/27 12:09:51;;;;;;;2.40;0.82;;;24.80;1.30;;;;;;5027355;28;20132;-51
2022/07/27 12:12:19;;;;;;;2.78;0.90;;;24.80;1.20;;;;;;5046267;28;20033;-48
2022/07/27 12:14:53;;;;;;;1.40;0.75;;;24.70;1.30;;;;;;5061375;28;20043;-49
2022/07/27 12:17:28;;;;;;;2.03;0.88;;;24.60;1.60;;;;;;5045172;28;20043;-49
2022/07/27 12:19:54;;;;;;;;;;;24.50;1.80;;;;;;5067738;28;20044;-50
2022/07/27 12:22:30;;;;;;;1.93;0.80;;;24.30;1.50;;;;;;5046584;28;19916;-51
2022/07/27 12:24:57;;;;;;;1.92;0.70;;;24.20;2.10;;;;;;5027963;28;20504;-53
2022/07/27 12:27:25;;;;;;;2.40;0.80;;;24.00;2.40;;;;;;5045798;28;20044;-50
2022/07/27 12:29:59;;;;;;;3.38;0.90;;;23.90;2.40;;;;;;5067276;28;20031;-49
2022/07/27 12:32:26;;;;;;;1.85;1.00;;;23.90;2.10;;;;;;5045562;28;20040;-52
2022/07/27 12:34:53;;;;;;;1.00;0.80;;;24.00;2.40;;;;;;5066972;28;20195;-52
2022/07/27 12:37:19;;;;;;;2.58;0.85;;;24.10;2.20;;;;;;5046311;28;20274;-49
2022/07/27 12:39:46;;;;;;;1.70;0.75;;;24.00;2.50;;;;;;5066973;28;20611;-53
2022/07/27 12:42:12;;;;;;;2.80;0.80;;;24.10;2.60;;;;;;5046387;28;20025;-50
2022/07/27 12:44:40;;;;;;;2.50;0.80;;;24.20;2.40;;;;;;5068675;28;20048;-50
2022/07/27 12:50:10;;;;;;;1.20;0.65;;;24.40;2.40;;;;;;5031227;28;20129;-48
2022/07/27 12:52:42;;;;;;;2.80;0.93;;;24.50;2.00;;;;;;5031367;28;20405;-49
2022/07/27 12:55:08;;;;;;;2.80;0.82;;;24.20;2.50;;;;;;5031345;28;20056;-50
2022/07/27 12:57:34;;;;;;;2.30;0.70;;;24.20;2.70;;;;;;5031394;28;20029;-50
2022/07/27 12:59:59;;;;;;;1.77;0.70;;;24.20;2.50;;;;;;5069838;28;20048;-49